Řízení letového provozu České republiky
Letiste: LKMT Aktualizace: 27.03.2017 12:30:10  UTC
 METAR LKMT 27.03. 12:30 ...
METAR LKMT 271230Z VRB02KT CAVOK 13/M03 Q1026 NOSIG RMK REG QNH 1022=
 TAF LKMT 27.03. 11:00 ...
TAF LKMT 271100Z 2712/2818 VRB02KT CAVOK      TEMPO 2712/2802 24005KT      BECMG 2802/2805 22010KT=